sensor_id;sensor_type;location;lat;lon;timestamp;P1;durP1;ratioP1;P2;durP2;ratioP2
39738;SDS011;25422;48.286;8.484;2022-10-16T00:01:17;2.28;;;1.50;;
39738;SDS011;25422;48.286;8.484;2022-10-16T00:03:44;2.00;;;1.40;;
39738;SDS011;25422;48.286;8.484;2022-10-16T00:06:10;2.72;;;1.25;;
39738;SDS011;25422;48.286;8.484;2022-10-16T00:08:37;2.22;;;1.52;;
39738;SDS011;25422;48.286;8.484;2022-10-16T00:11:10;4.70;;;1.65;;
39738;SDS011;25422;48.286;8.484;2022-10-16T00:13:41;2.45;;;1.45;;
39738;SDS011;25422;48.286;8.484;2022-10-16T00:16:07;2.85;;;1.40;;
39738;SDS011;25422;48.286;8.484;2022-10-16T00:18:34;1.58;;;1.38;;
39738;SDS011;25422;48.286;8.484;2022-10-16T00:21:03;7.13;;;1.73;;
39738;SDS011;25422;48.286;8.484;2022-10-16T00:23:30;3.95;;;1.90;;
39738;SDS011;25422;48.286;8.484;2022-10-16T00:25:57;2.70;;;1.80;;
39738;SDS011;25422;48.286;8.484;2022-10-16T00:28:24;2.55;;;1.42;;
39738;SDS011;25422;48.286;8.484;2022-10-16T00:30:51;2.95;;;2.10;;
39738;SDS011;25422;48.286;8.484;2022-10-16T00:33:17;2.65;;;1.83;;
39738;SDS011;25422;48.286;8.484;2022-10-16T00:35:42;2.10;;;1.20;;
39738;SDS011;25422;48.286;8.484;2022-10-16T00:38:08;3.22;;;1.70;;
39738;SDS011;25422;48.286;8.484;2022-10-16T00:40:34;2.78;;;1.70;;
39738;SDS011;25422;48.286;8.484;2022-10-16T00:42:59;2.40;;;1.55;;
39738;SDS011;25422;48.286;8.484;2022-10-16T00:45:24;4.82;;;1.80;;
39738;SDS011;25422;48.286;8.484;2022-10-16T00:47:50;4.05;;;1.77;;
39738;SDS011;25422;48.286;8.484;2022-10-16T00:50:24;1.70;;;1.60;;
39738;SDS011;25422;48.286;8.484;2022-10-16T00:52:53;2.63;;;1.80;;
39738;SDS011;25422;48.286;8.484;2022-10-16T00:55:19;2.85;;;1.80;;
39738;SDS011;25422;48.286;8.484;2022-10-16T00:57:45;2.75;;;1.70;;
39738;SDS011;25422;48.286;8.484;2022-10-16T01:00:13;2.00;;;1.60;;
39738;SDS011;25422;48.286;8.484;2022-10-16T01:02:41;2.95;;;1.90;;
39738;SDS011;25422;48.286;8.484;2022-10-16T01:05:07;5.18;;;1.70;;
39738;SDS011;25422;48.286;8.484;2022-10-16T01:07:49;2.22;;;2.03;;
39738;SDS011;25422;48.286;8.484;2022-10-16T01:12:57;5.18;;;1.65;;
39738;SDS011;25422;48.286;8.484;2022-10-16T01:15:45;1.90;;;1.60;;
39738;SDS011;25422;48.286;8.484;2022-10-16T01:18:18;4.05;;;1.80;;
39738;SDS011;25422;48.286;8.484;2022-10-16T01:21:06;2.20;;;1.83;;
39738;SDS011;25422;48.286;8.484;2022-10-16T01:24:27;2.90;;;1.80;;
39738;SDS011;25422;48.286;8.484;2022-10-16T01:29:26;2.92;;;1.88;;
39738;SDS011;25422;48.286;8.484;2022-10-16T01:31:59;2.22;;;1.75;;
39738;SDS011;25422;48.286;8.484;2022-10-16T01:34:38;2.80;;;1.88;;
39738;SDS011;25422;48.286;8.484;2022-10-16T01:37:13;3.55;;;1.70;;
39738;SDS011;25422;48.286;8.484;2022-10-16T01:39:45;2.13;;;1.95;;
39738;SDS011;25422;48.286;8.484;2022-10-16T01:42:19;3.05;;;1.92;;
39738;SDS011;25422;48.286;8.484;2022-10-16T01:44:47;3.13;;;1.80;;
39738;SDS011;25422;48.286;8.484;2022-10-16T01:47:14;2.78;;;2.05;;
39738;SDS011;25422;48.286;8.484;2022-10-16T01:49:42;4.68;;;1.80;;
39738;SDS011;25422;48.286;8.484;2022-10-16T01:52:10;2.33;;;1.92;;
39738;SDS011;25422;48.286;8.484;2022-10-16T01:54:41;1.73;;;1.52;;
39738;SDS011;25422;48.286;8.484;2022-10-16T01:57:09;2.10;;;1.88;;
39738;SDS011;25422;48.286;8.484;2022-10-16T01:59:38;4.05;;;1.90;;
39738;SDS011;25422;48.286;8.484;2022-10-16T02:02:09;4.97;;;1.80;;
39738;SDS011;25422;48.286;8.484;2022-10-16T02:04:47;3.00;;;1.98;;
39738;SDS011;25422;48.286;8.484;2022-10-16T02:09:42;4.20;;;1.83;;
39738;SDS011;25422;48.286;8.484;2022-10-16T02:12:11;2.38;;;1.63;;
39738;SDS011;25422;48.286;8.484;2022-10-16T02:14:41;3.55;;;1.98;;
39738;SDS011;25422;48.286;8.484;2022-10-16T02:17:14;1.98;;;1.75;;
39738;SDS011;25422;48.286;8.484;2022-10-16T02:19:41;3.20;;;1.75;;
39738;SDS011;25422;48.286;8.484;2022-10-16T02:22:09;2.67;;;1.67;;
39738;SDS011;25422;48.286;8.484;2022-10-16T02:27:46;5.00;;;1.77;;
39738;SDS011;25422;48.286;8.484;2022-10-16T02:30:19;2.28;;;1.90;;
39738;SDS011;25422;48.286;8.484;2022-10-16T02:32:50;2.30;;;1.60;;
39738;SDS011;25422;48.286;8.484;2022-10-16T02:35:17;1.90;;;1.75;;
39738;SDS011;25422;48.286;8.484;2022-10-16T02:37:46;4.45;;;2.00;;
39738;SDS011;25422;48.286;8.484;2022-10-16T02:40:13;3.45;;;1.92;;
39738;SDS011;25422;48.286;8.484;2022-10-16T02:42:39;2.33;;;2.08;;
39738;SDS011;25422;48.286;8.484;2022-10-16T02:45:07;5.47;;;2.25;;
39738;SDS011;25422;48.286;8.484;2022-10-16T02:47:34;6.13;;;2.10;;
39738;SDS011;25422;48.286;8.484;2022-10-16T02:49:59;3.10;;;2.30;;
39738;SDS011;25422;48.286;8.484;2022-10-16T02:52:25;2.58;;;2.38;;
39738;SDS011;25422;48.286;8.484;2022-10-16T02:54:50;3.55;;;2.80;;
39738;SDS011;25422;48.286;8.484;2022-10-16T02:57:16;6.25;;;3.10;;
39738;SDS011;25422;48.286;8.484;2022-10-16T02:59:43;6.50;;;3.05;;
39738;SDS011;25422;48.286;8.484;2022-10-16T03:02:08;4.70;;;2.95;;
39738;SDS011;25422;48.286;8.484;2022-10-16T03:04:34;7.35;;;3.20;;
39738;SDS011;25422;48.286;8.484;2022-10-16T03:06:59;3.53;;;2.75;;
39738;SDS011;25422;48.286;8.484;2022-10-16T03:09:25;3.20;;;2.90;;
39738;SDS011;25422;48.286;8.484;2022-10-16T03:11:50;5.70;;;2.80;;
39738;SDS011;25422;48.286;8.484;2022-10-16T03:14:17;4.70;;;2.30;;
39738;SDS011;25422;48.286;8.484;2022-10-16T03:16:42;4.95;;;2.28;;
39738;SDS011;25422;48.286;8.484;2022-10-16T03:19:08;3.65;;;2.45;;
39738;SDS011;25422;48.286;8.484;2022-10-16T03:21:33;4.57;;;2.58;;
39738;SDS011;25422;48.286;8.484;2022-10-16T03:23:58;4.90;;;2.55;;
39738;SDS011;25422;48.286;8.484;2022-10-16T03:26:24;4.90;;;2.10;;
39738;SDS011;25422;48.286;8.484;2022-10-16T03:28:49;3.05;;;2.13;;
39738;SDS011;25422;48.286;8.484;2022-10-16T03:31:15;3.13;;;2.15;;
39738;SDS011;25422;48.286;8.484;2022-10-16T03:33:40;2.78;;;1.80;;
39738;SDS011;25422;48.286;8.484;2022-10-16T03:36:06;2.42;;;2.22;;
39738;SDS011;25422;48.286;8.484;2022-10-16T03:38:31;3.22;;;2.10;;
39738;SDS011;25422;48.286;8.484;2022-10-16T03:40:57;2.70;;;2.05;;
39738;SDS011;25422;48.286;8.484;2022-10-16T03:43:22;2.83;;;2.15;;
39738;SDS011;25422;48.286;8.484;2022-10-16T03:45:49;4.82;;;2.17;;
39738;SDS011;25422;48.286;8.484;2022-10-16T03:48:15;2.30;;;1.98;;
39738;SDS011;25422;48.286;8.484;2022-10-16T03:50:41;2.63;;;1.95;;
39738;SDS011;25422;48.286;8.484;2022-10-16T03:53:06;5.20;;;2.28;;
39738;SDS011;25422;48.286;8.484;2022-10-16T03:55:31;3.58;;;2.08;;
39738;SDS011;25422;48.286;8.484;2022-10-16T03:57:57;2.28;;;1.90;;
39738;SDS011;25422;48.286;8.484;2022-10-16T04:00:22;2.35;;;2.15;;
39738;SDS011;25422;48.286;8.484;2022-10-16T04:02:48;2.38;;;1.90;;
39738;SDS011;25422;48.286;8.484;2022-10-16T04:05:13;3.47;;;2.20;;
39738;SDS011;25422;48.286;8.484;2022-10-16T04:07:39;2.33;;;1.83;;
39738;SDS011;25422;48.286;8.484;2022-10-16T04:10:04;9.90;;;2.30;;
39738;SDS011;25422;48.286;8.484;2022-10-16T04:12:30;4.50;;;2.30;;
39738;SDS011;25422;48.286;8.484;2022-10-16T04:14:55;5.70;;;2.20;;
39738;SDS011;25422;48.286;8.484;2022-10-16T04:17:21;4.00;;;2.00;;
39738;SDS011;25422;48.286;8.484;2022-10-16T04:19:46;3.25;;;1.83;;
39738;SDS011;25422;48.286;8.484;2022-10-16T04:22:12;2.72;;;1.92;;
39738;SDS011;25422;48.286;8.484;2022-10-16T04:24:37;5.38;;;2.00;;
39738;SDS011;25422;48.286;8.484;2022-10-16T04:27:03;2.17;;;1.80;;
39738;SDS011;25422;48.286;8.484;2022-10-16T04:29:28;2.78;;;2.30;;
39738;SDS011;25422;48.286;8.484;2022-10-16T04:31:54;3.47;;;2.05;;
39738;SDS011;25422;48.286;8.484;2022-10-16T04:34:19;2.75;;;2.08;;
39738;SDS011;25422;48.286;8.484;2022-10-16T04:36:46;2.97;;;1.80;;
39738;SDS011;25422;48.286;8.484;2022-10-16T04:39:13;2.45;;;2.25;;
39738;SDS011;25422;48.286;8.484;2022-10-16T04:41:39;5.43;;;2.45;;
39738;SDS011;25422;48.286;8.484;2022-10-16T04:44:04;3.47;;;2.17;;
39738;SDS011;25422;48.286;8.484;2022-10-16T04:46:30;3.55;;;2.47;;
39738;SDS011;25422;48.286;8.484;2022-10-16T04:48:55;2.92;;;2.42;;
39738;SDS011;25422;48.286;8.484;2022-10-16T04:51:20;6.60;;;2.45;;
39738;SDS011;25422;48.286;8.484;2022-10-16T04:53:46;3.33;;;2.33;;
39738;SDS011;25422;48.286;8.484;2022-10-16T04:56:11;5.00;;;2.35;;
39738;SDS011;25422;48.286;8.484;2022-10-16T04:58:37;3.65;;;2.33;;
39738;SDS011;25422;48.286;8.484;2022-10-16T05:01:02;5.10;;;2.28;;
39738;SDS011;25422;48.286;8.484;2022-10-16T05:03:28;1.75;;;1.60;;
39738;SDS011;25422;48.286;8.484;2022-10-16T05:05:53;3.22;;;2.10;;
39738;SDS011;25422;48.286;8.484;2022-10-16T05:08:18;2.20;;;2.00;;
39738;SDS011;25422;48.286;8.484;2022-10-16T05:10:44;2.25;;;2.00;;
39738;SDS011;25422;48.286;8.484;2022-10-16T05:13:10;1.85;;;1.67;;
39738;SDS011;25422;48.286;8.484;2022-10-16T05:15:36;7.30;;;1.90;;
39738;SDS011;25422;48.286;8.484;2022-10-16T05:18:01;2.85;;;1.88;;
39738;SDS011;25422;48.286;8.484;2022-10-16T05:20:27;2.85;;;2.03;;
39738;SDS011;25422;48.286;8.484;2022-10-16T05:22:53;3.17;;;1.75;;
39738;SDS011;25422;48.286;8.484;2022-10-16T05:25:18;3.15;;;1.70;;
39738;SDS011;25422;48.286;8.484;2022-10-16T05:27:46;6.15;;;1.98;;
39738;SDS011;25422;48.286;8.484;2022-10-16T05:30:13;2.10;;;1.80;;
39738;SDS011;25422;48.286;8.484;2022-10-16T05:32:38;2.78;;;2.10;;
39738;SDS011;25422;48.286;8.484;2022-10-16T05:35:04;3.25;;;2.33;;
39738;SDS011;25422;48.286;8.484;2022-10-16T05:37:29;2.38;;;1.80;;
39738;SDS011;25422;48.286;8.484;2022-10-16T05:39:55;3.83;;;1.83;;
39738;SDS011;25422;48.286;8.484;2022-10-16T05:42:20;2.30;;;2.10;;
39738;SDS011;25422;48.286;8.484;2022-10-16T05:44:46;5.95;;;2.17;;
39738;SDS011;25422;48.286;8.484;2022-10-16T05:47:14;3.40;;;1.98;;
39738;SDS011;25422;48.286;8.484;2022-10-16T05:49:40;4.00;;;2.13;;
39738;SDS011;25422;48.286;8.484;2022-10-16T05:52:05;4.07;;;2.13;;
39738;SDS011;25422;48.286;8.484;2022-10-16T05:54:31;2.92;;;2.05;;
39738;SDS011;25422;48.286;8.484;2022-10-16T05:56:57;2.10;;;1.90;;
39738;SDS011;25422;48.286;8.484;2022-10-16T05:59:22;2.03;;;1.80;;
39738;SDS011;25422;48.286;8.484;2022-10-16T06:01:47;3.10;;;1.70;;
39738;SDS011;25422;48.286;8.484;2022-10-16T06:04:13;1.90;;;1.73;;
39738;SDS011;25422;48.286;8.484;2022-10-16T06:06:38;2.15;;;1.77;;
39738;SDS011;25422;48.286;8.484;2022-10-16T06:09:04;4.93;;;1.77;;
39738;SDS011;25422;48.286;8.484;2022-10-16T06:11:30;2.63;;;1.70;;
39738;SDS011;25422;48.286;8.484;2022-10-16T06:13:58;2.75;;;1.70;;
39738;SDS011;25422;48.286;8.484;2022-10-16T06:16:31;3.10;;;1.65;;
39738;SDS011;25422;48.286;8.484;2022-10-16T06:19:00;3.47;;;1.85;;
39738;SDS011;25422;48.286;8.484;2022-10-16T06:21:27;3.58;;;2.00;;
39738;SDS011;25422;48.286;8.484;2022-10-16T06:23:56;2.75;;;1.75;;
39738;SDS011;25422;48.286;8.484;2022-10-16T06:26:23;1.90;;;1.75;;
39738;SDS011;25422;48.286;8.484;2022-10-16T06:28:50;3.17;;;1.58;;
39738;SDS011;25422;48.286;8.484;2022-10-16T06:31:16;1.70;;;1.60;;
39738;SDS011;25422;48.286;8.484;2022-10-16T06:33:42;3.88;;;1.50;;
39738;SDS011;25422;48.286;8.484;2022-10-16T06:36:09;1.67;;;1.58;;
39738;SDS011;25422;48.286;8.484;2022-10-16T06:38:36;4.57;;;1.80;;
39738;SDS011;25422;48.286;8.484;2022-10-16T06:41:03;7.70;;;2.08;;
39738;SDS011;25422;48.286;8.484;2022-10-16T06:43:29;2.25;;;1.98;;
39738;SDS011;25422;48.286;8.484;2022-10-16T06:46:00;5.03;;;2.40;;
39738;SDS011;25422;48.286;8.484;2022-10-16T06:48:27;3.47;;;2.00;;
39738;SDS011;25422;48.286;8.484;2022-10-16T06:53:22;2.55;;;1.95;;
39738;SDS011;25422;48.286;8.484;2022-10-16T06:55:48;2.65;;;2.30;;
39738;SDS011;25422;48.286;8.484;2022-10-16T06:58:14;3.25;;;1.98;;
39738;SDS011;25422;48.286;8.484;2022-10-16T07:00:39;4.72;;;2.13;;
39738;SDS011;25422;48.286;8.484;2022-10-16T07:03:05;2.45;;;2.08;;
39738;SDS011;25422;48.286;8.484;2022-10-16T07:05:30;2.00;;;1.63;;
39738;SDS011;25422;48.286;8.484;2022-10-16T07:07:55;1.65;;;1.55;;
39738;SDS011;25422;48.286;8.484;2022-10-16T07:10:21;3.28;;;1.52;;
39738;SDS011;25422;48.286;8.484;2022-10-16T07:12:49;1.70;;;1.60;;
39738;SDS011;25422;48.286;8.484;2022-10-16T07:15:14;3.47;;;1.88;;
39738;SDS011;25422;48.286;8.484;2022-10-16T07:17:40;3.17;;;1.88;;
39738;SDS011;25422;48.286;8.484;2022-10-16T07:20:06;4.25;;;1.30;;
39738;SDS011;25422;48.286;8.484;2022-10-16T07:22:31;3.03;;;1.50;;
39738;SDS011;25422;48.286;8.484;2022-10-16T07:24:57;2.78;;;1.45;;
39738;SDS011;25422;48.286;8.484;2022-10-16T07:27:23;2.95;;;1.52;;
39738;SDS011;25422;48.286;8.484;2022-10-16T07:29:49;3.05;;;1.55;;
39738;SDS011;25422;48.286;8.484;2022-10-16T07:32:15;1.50;;;1.40;;
39738;SDS011;25422;48.286;8.484;2022-10-16T07:34:40;2.70;;;1.30;;
39738;SDS011;25422;48.286;8.484;2022-10-16T07:37:06;1.73;;;1.33;;
39738;SDS011;25422;48.286;8.484;2022-10-16T07:39:31;3.10;;;1.20;;
39738;SDS011;25422;48.286;8.484;2022-10-16T07:41:57;2.08;;;1.20;;
39738;SDS011;25422;48.286;8.484;2022-10-16T07:44:22;2.20;;;1.40;;
39738;SDS011;25422;48.286;8.484;2022-10-16T07:46:47;3.22;;;1.80;;
39738;SDS011;25422;48.286;8.484;2022-10-16T07:49:13;5.05;;;1.80;;
39738;SDS011;25422;48.286;8.484;2022-10-16T07:51:38;4.55;;;1.73;;
39738;SDS011;25422;48.286;8.484;2022-10-16T07:54:04;3.22;;;1.67;;
39738;SDS011;25422;48.286;8.484;2022-10-16T07:56:30;2.08;;;1.65;;
39738;SDS011;25422;48.286;8.484;2022-10-16T07:58:57;2.92;;;1.65;;
39738;SDS011;25422;48.286;8.484;2022-10-16T08:01:22;2.05;;;1.30;;
39738;SDS011;25422;48.286;8.484;2022-10-16T08:03:49;2.17;;;1.83;;
39738;SDS011;25422;48.286;8.484;2022-10-16T08:06:15;3.58;;;1.90;;
39738;SDS011;25422;48.286;8.484;2022-10-16T08:08:42;4.93;;;2.17;;
39738;SDS011;25422;48.286;8.484;2022-10-16T08:11:07;4.55;;;2.80;;
39738;SDS011;25422;48.286;8.484;2022-10-16T08:13:33;4.10;;;2.88;;
39738;SDS011;25422;48.286;8.484;2022-10-16T08:15:59;5.30;;;2.40;;
39738;SDS011;25422;48.286;8.484;2022-10-16T08:18:26;5.97;;;2.85;;
39738;SDS011;25422;48.286;8.484;2022-10-16T08:20:58;3.03;;;2.60;;
39738;SDS011;25422;48.286;8.484;2022-10-16T08:23:25;8.48;;;3.90;;
39738;SDS011;25422;48.286;8.484;2022-10-16T08:25:52;5.22;;;3.15;;
39738;SDS011;25422;48.286;8.484;2022-10-16T08:28:19;4.68;;;2.47;;
39738;SDS011;25422;48.286;8.484;2022-10-16T08:30:44;4.30;;;2.60;;
39738;SDS011;25422;48.286;8.484;2022-10-16T08:33:10;4.32;;;2.20;;
39738;SDS011;25422;48.286;8.484;2022-10-16T08:35:36;4.53;;;2.10;;
39738;SDS011;25422;48.286;8.484;2022-10-16T08:38:05;3.30;;;1.95;;
39738;SDS011;25422;48.286;8.484;2022-10-16T08:40:32;4.20;;;1.65;;
39738;SDS011;25422;48.286;8.484;2022-10-16T08:45:43;1.70;;;1.02;;
39738;SDS011;25422;48.286;8.484;2022-10-16T08:48:26;1.60;;;1.00;;
39738;SDS011;25422;48.286;8.484;2022-10-16T08:51:00;3.25;;;1.05;;
39738;SDS011;25422;48.286;8.484;2022-10-16T08:53:28;3.85;;;0.80;;
39738;SDS011;25422;48.286;8.484;2022-10-16T08:55:59;1.75;;;0.90;;
39738;SDS011;25422;48.286;8.484;2022-10-16T08:58:28;3.00;;;1.17;;
39738;SDS011;25422;48.286;8.484;2022-10-16T09:00:58;3.95;;;2.05;;
39738;SDS011;25422;48.286;8.484;2022-10-16T09:17:03;2.33;;;1.10;;
39738;SDS011;25422;48.286;8.484;2022-10-16T09:19:54;1.23;;;1.10;;
39738;SDS011;25422;48.286;8.484;2022-10-16T09:22:31;0.90;;;0.90;;
39738;SDS011;25422;48.286;8.484;2022-10-16T09:24:59;2.75;;;0.95;;
39738;SDS011;25422;48.286;8.484;2022-10-16T09:27:30;3.30;;;1.30;;
39738;SDS011;25422;48.286;8.484;2022-10-16T09:29:56;3.55;;;1.73;;
39738;SDS011;25422;48.286;8.484;2022-10-16T09:32:21;1.98;;;1.40;;
39738;SDS011;25422;48.286;8.484;2022-10-16T09:34:48;3.20;;;1.63;;
39738;SDS011;25422;48.286;8.484;2022-10-16T09:37:17;1.85;;;1.60;;
39738;SDS011;25422;48.286;8.484;2022-10-16T09:39:45;2.92;;;1.70;;
39738;SDS011;25422;48.286;8.484;2022-10-16T09:42:45;4.03;;;1.70;;
39738;SDS011;25422;48.286;8.484;2022-10-16T09:45:19;4.10;;;1.85;;
39738;SDS011;25422;48.286;8.484;2022-10-16T09:47:48;1.80;;;1.30;;
39738;SDS011;25422;48.286;8.484;2022-10-16T09:53:11;5.15;;;1.70;;
39738;SDS011;25422;48.286;8.484;2022-10-16T09:55:48;5.60;;;1.92;;
39738;SDS011;25422;48.286;8.484;2022-10-16T09:58:15;3.70;;;2.03;;
39738;SDS011;25422;48.286;8.484;2022-10-16T10:00:48;3.33;;;1.67;;
39738;SDS011;25422;48.286;8.484;2022-10-16T10:03:58;2.67;;;1.85;;
39738;SDS011;25422;48.286;8.484;2022-10-16T10:06:07;4.97;;;1.92;;
39738;SDS011;25422;48.286;8.484;2022-10-16T10:11:40;4.37;;;1.70;;
39738;SDS011;25422;48.286;8.484;2022-10-16T10:14:15;5.75;;;1.80;;
39738;SDS011;25422;48.286;8.484;2022-10-16T10:16:43;3.08;;;1.50;;
39738;SDS011;25422;48.286;8.484;2022-10-16T10:19:19;2.10;;;1.23;;
39738;SDS011;25422;48.286;8.484;2022-10-16T10:21:49;3.85;;;1.70;;
39738;SDS011;25422;48.286;8.484;2022-10-16T10:24:17;2.80;;;1.70;;
39738;SDS011;25422;48.286;8.484;2022-10-16T10:29:21;2.92;;;1.55;;
39738;SDS011;25422;48.286;8.484;2022-10-16T10:32:03;5.47;;;1.67;;
39738;SDS011;25422;48.286;8.484;2022-10-16T10:37:34;2.10;;;1.33;;
39738;SDS011;25422;48.286;8.484;2022-10-16T10:42:56;2.25;;;1.20;;
39738;SDS011;25422;48.286;8.484;2022-10-16T10:45:33;3.00;;;1.65;;
39738;SDS011;25422;48.286;8.484;2022-10-16T10:48:22;3.58;;;1.77;;
39738;SDS011;25422;48.286;8.484;2022-10-16T10:51:22;1.05;;;0.98;;
39738;SDS011;25422;48.286;8.484;2022-10-16T11:02:26;2.53;;;1.10;;
39738;SDS011;25422;48.286;8.484;2022-10-16T11:08:01;3.17;;;1.05;;
39738;SDS011;25422;48.286;8.484;2022-10-16T11:10:42;3.90;;;1.40;;
39738;SDS011;25422;48.286;8.484;2022-10-16T11:13:22;3.03;;;1.10;;
39738;SDS011;25422;48.286;8.484;2022-10-16T11:15:52;2.60;;;1.58;;
39738;SDS011;25422;48.286;8.484;2022-10-16T11:18:30;5.25;;;1.25;;
39738;SDS011;25422;48.286;8.484;2022-10-16T11:21:03;2.47;;;1.20;;
39738;SDS011;25422;48.286;8.484;2022-10-16T11:23:52;3.53;;;1.02;;
39738;SDS011;25422;48.286;8.484;2022-10-16T11:26:55;2.20;;;1.20;;
39738;SDS011;25422;48.286;8.484;2022-10-16T11:29:17;4.68;;;1.58;;
39738;SDS011;25422;48.286;8.484;2022-10-16T11:31:49;4.15;;;1.17;;
39738;SDS011;25422;48.286;8.484;2022-10-16T11:39:28;1.63;;;1.00;;
39738;SDS011;25422;48.286;8.484;2022-10-16T11:47:27;6.40;;;1.35;;
39738;SDS011;25422;48.286;8.484;2022-10-16T11:50:13;2.15;;;1.00;;
39738;SDS011;25422;48.286;8.484;2022-10-16T11:55:49;2.15;;;1.10;;
39738;SDS011;25422;48.286;8.484;2022-10-16T12:01:02;4.80;;;1.65;;
39738;SDS011;25422;48.286;8.484;2022-10-16T12:09:05;1.95;;;1.02;;
39738;SDS011;25422;48.286;8.484;2022-10-16T12:11:35;4.32;;;1.20;;
39738;SDS011;25422;48.286;8.484;2022-10-16T12:14:18;3.53;;;1.10;;
39738;SDS011;25422;48.286;8.484;2022-10-16T12:16:55;1.50;;;1.00;;
39738;SDS011;25422;48.286;8.484;2022-10-16T12:19:27;1.25;;;0.90;;
39738;SDS011;25422;48.286;8.484;2022-10-16T12:21:58;4.32;;;1.20;;
39738;SDS011;25422;48.286;8.484;2022-10-16T12:24:44;6.57;;;1.30;;
39738;SDS011;25422;48.286;8.484;2022-10-16T12:29:59;1.67;;;1.20;;
39738;SDS011;25422;48.286;8.484;2022-10-16T12:32:34;6.03;;;1.60;;
39738;SDS011;25422;48.286;8.484;2022-10-16T12:35:02;4.07;;;1.23;;
39738;SDS011;25422;48.286;8.484;2022-10-16T12:37:36;4.30;;;1.30;;
39738;SDS011;25422;48.286;8.484;2022-10-16T12:40:12;5.35;;;1.17;;
39738;SDS011;25422;48.286;8.484;2022-10-16T12:42:40;4.55;;;1.42;;
39738;SDS011;25422;48.286;8.484;2022-10-16T12:45:27;3.67;;;1.10;;
39738;SDS011;25422;48.286;8.484;2022-10-16T12:47:56;2.55;;;1.10;;
39738;SDS011;25422;48.286;8.484;2022-10-16T12:50:34;2.22;;;1.10;;
39738;SDS011;25422;48.286;8.484;2022-10-16T12:53:01;4.85;;;1.40;;
39738;SDS011;25422;48.286;8.484;2022-10-16T12:55:34;4.97;;;1.55;;
39738;SDS011;25422;48.286;8.484;2022-10-16T13:00:50;4.20;;;1.40;;
39738;SDS011;25422;48.286;8.484;2022-10-16T13:06:08;2.65;;;1.30;;
39738;SDS011;25422;48.286;8.484;2022-10-16T13:14:17;2.28;;;1.35;;
39738;SDS011;25422;48.286;8.484;2022-10-16T13:17:10;4.03;;;1.50;;
39738;SDS011;25422;48.286;8.484;2022-10-16T13:28:38;2.53;;;1.20;;
39738;SDS011;25422;48.286;8.484;2022-10-16T13:31:04;2.08;;;1.10;;
39738;SDS011;25422;48.286;8.484;2022-10-16T13:33:31;2.10;;;1.38;;
39738;SDS011;25422;48.286;8.484;2022-10-16T13:36:00;5.20;;;1.58;;
39738;SDS011;25422;48.286;8.484;2022-10-16T13:38:27;1.40;;;1.30;;
39738;SDS011;25422;48.286;8.484;2022-10-16T13:41:06;3.20;;;1.52;;
39738;SDS011;25422;48.286;8.484;2022-10-16T13:43:40;2.20;;;1.25;;
39738;SDS011;25422;48.286;8.484;2022-10-16T13:46:10;6.03;;;1.40;;
39738;SDS011;25422;48.286;8.484;2022-10-16T13:48:38;5.25;;;1.50;;
39738;SDS011;25422;48.286;8.484;2022-10-16T13:53:37;5.35;;;1.50;;
39738;SDS011;25422;48.286;8.484;2022-10-16T13:56:03;3.38;;;1.63;;
39738;SDS011;25422;48.286;8.484;2022-10-16T13:58:31;4.93;;;1.57;;
39738;SDS011;25422;48.286;8.484;2022-10-16T14:00:57;4.50;;;1.67;;
39738;SDS011;25422;48.286;8.484;2022-10-16T14:03:25;2.60;;;1.43;;
39738;SDS011;25422;48.286;8.484;2022-10-16T14:05:53;3.45;;;1.40;;
39738;SDS011;25422;48.286;8.484;2022-10-16T14:10:57;2.63;;;1.38;;
39738;SDS011;25422;48.286;8.484;2022-10-16T14:13:36;2.38;;;1.42;;
39738;SDS011;25422;48.286;8.484;2022-10-16T14:16:07;3.17;;;1.67;;
39738;SDS011;25422;48.286;8.484;2022-10-16T14:18:35;2.72;;;1.50;;
39738;SDS011;25422;48.286;8.484;2022-10-16T14:21:04;2.72;;;1.45;;
39738;SDS011;25422;48.286;8.484;2022-10-16T14:23:37;4.32;;;1.20;;
39738;SDS011;25422;48.286;8.484;2022-10-16T14:26:15;2.35;;;1.58;;
39738;SDS011;25422;48.286;8.484;2022-10-16T14:28:43;2.25;;;1.45;;
39738;SDS011;25422;48.286;8.484;2022-10-16T14:33:54;3.42;;;1.55;;
39738;SDS011;25422;48.286;8.484;2022-10-16T14:36:20;3.30;;;1.70;;
39738;SDS011;25422;48.286;8.484;2022-10-16T14:41:41;4.50;;;1.35;;
39738;SDS011;25422;48.286;8.484;2022-10-16T14:44:10;2.55;;;1.38;;
39738;SDS011;25422;48.286;8.484;2022-10-16T14:46:37;2.40;;;1.50;;
39738;SDS011;25422;48.286;8.484;2022-10-16T14:51:34;2.15;;;1.45;;
39738;SDS011;25422;48.286;8.484;2022-10-16T14:54:00;3.05;;;1.40;;
39738;SDS011;25422;48.286;8.484;2022-10-16T14:56:29;3.47;;;1.35;;
39738;SDS011;25422;48.286;8.484;2022-10-16T14:58:56;2.22;;;1.58;;
39738;SDS011;25422;48.286;8.484;2022-10-16T15:01:22;3.70;;;2.13;;
39738;SDS011;25422;48.286;8.484;2022-10-16T15:03:47;6.93;;;2.50;;
39738;SDS011;25422;48.286;8.484;2022-10-16T15:06:14;2.13;;;1.45;;
39738;SDS011;25422;48.286;8.484;2022-10-16T15:08:40;7.20;;;1.55;;
39738;SDS011;25422;48.286;8.484;2022-10-16T15:11:13;2.28;;;1.30;;
39738;SDS011;25422;48.286;8.484;2022-10-16T15:13:41;1.55;;;1.45;;
39738;SDS011;25422;48.286;8.484;2022-10-16T15:16:14;2.45;;;1.40;;
39738;SDS011;25422;48.286;8.484;2022-10-16T15:18:41;4.70;;;1.40;;
39738;SDS011;25422;48.286;8.484;2022-10-16T15:21:07;1.80;;;1.50;;
39738;SDS011;25422;48.286;8.484;2022-10-16T15:23:34;1.30;;;1.20;;
39738;SDS011;25422;48.286;8.484;2022-10-16T15:25:59;2.72;;;1.20;;
39738;SDS011;25422;48.286;8.484;2022-10-16T15:28:25;2.90;;;1.33;;
39738;SDS011;25422;48.286;8.484;2022-10-16T15:30:54;3.67;;;1.63;;
39738;SDS011;25422;48.286;8.484;2022-10-16T15:33:22;2.28;;;1.60;;
39738;SDS011;25422;48.286;8.484;2022-10-16T15:35:54;4.07;;;1.70;;
39738;SDS011;25422;48.286;8.484;2022-10-16T15:38:20;5.38;;;1.60;;
39738;SDS011;25422;48.286;8.484;2022-10-16T15:40:47;3.10;;;1.90;;
39738;SDS011;25422;48.286;8.484;2022-10-16T15:43:14;6.97;;;2.65;;
39738;SDS011;25422;48.286;8.484;2022-10-16T15:45:40;2.58;;;2.38;;
39738;SDS011;25422;48.286;8.484;2022-10-16T15:48:05;4.15;;;1.70;;
39738;SDS011;25422;48.286;8.484;2022-10-16T15:50:31;2.00;;;1.25;;
39738;SDS011;25422;48.286;8.484;2022-10-16T15:52:57;2.05;;;1.63;;
39738;SDS011;25422;48.286;8.484;2022-10-16T15:55:25;2.50;;;1.80;;
39738;SDS011;25422;48.286;8.484;2022-10-16T15:57:51;3.55;;;1.40;;
39738;SDS011;25422;48.286;8.484;2022-10-16T16:00:17;2.70;;;1.60;;
39738;SDS011;25422;48.286;8.484;2022-10-16T16:02:51;1.42;;;1.27;;
39738;SDS011;25422;48.286;8.484;2022-10-16T16:05:18;1.50;;;1.40;;
39738;SDS011;25422;48.286;8.484;2022-10-16T16:07:44;3.08;;;1.95;;
39738;SDS011;25422;48.286;8.484;2022-10-16T16:10:10;5.78;;;1.63;;
39738;SDS011;25422;48.286;8.484;2022-10-16T16:12:36;6.13;;;2.50;;
39738;SDS011;25422;48.286;8.484;2022-10-16T16:15:03;10.18;;;2.72;;
39738;SDS011;25422;48.286;8.484;2022-10-16T16:17:33;8.85;;;2.75;;
39738;SDS011;25422;48.286;8.484;2022-10-16T16:19:59;3.72;;;1.88;;
39738;SDS011;25422;48.286;8.484;2022-10-16T16:22:25;2.67;;;1.60;;
39738;SDS011;25422;48.286;8.484;2022-10-16T16:24:51;4.05;;;1.60;;
39738;SDS011;25422;48.286;8.484;2022-10-16T16:27:16;8.85;;;1.60;;
39738;SDS011;25422;48.286;8.484;2022-10-16T16:29:42;4.20;;;1.42;;
39738;SDS011;25422;48.286;8.484;2022-10-16T16:32:07;2.65;;;1.65;;
39738;SDS011;25422;48.286;8.484;2022-10-16T16:34:33;1.65;;;1.40;;
39738;SDS011;25422;48.286;8.484;2022-10-16T16:36:59;6.82;;;2.00;;
39738;SDS011;25422;48.286;8.484;2022-10-16T16:39:24;4.10;;;1.67;;
39738;SDS011;25422;48.286;8.484;2022-10-16T16:41:50;2.13;;;1.40;;
39738;SDS011;25422;48.286;8.484;2022-10-16T16:44:15;2.63;;;2.38;;
39738;SDS011;25422;48.286;8.484;2022-10-16T16:46:42;3.08;;;1.77;;
39738;SDS011;25422;48.286;8.484;2022-10-16T16:49:11;4.97;;;1.85;;
39738;SDS011;25422;48.286;8.484;2022-10-16T16:51:38;2.75;;;1.38;;